sensor_id;sensor_type;location;lat;lon;timestamp;P1;durP1;ratioP1;P2;durP2;ratioP2
9657;SDS011;4867;48.112;11.622;2023-07-16T00:02:04;7.23;;;5.20;;
9657;SDS011;4867;48.112;11.622;2023-07-16T00:04:32;6.23;;;5.40;;
9657;SDS011;4867;48.112;11.622;2023-07-16T00:07:00;6.50;;;5.57;;
9657;SDS011;4867;48.112;11.622;2023-07-16T00:09:28;6.50;;;5.90;;
9657;SDS011;4867;48.112;11.622;2023-07-16T00:11:56;7.87;;;5.50;;
9657;SDS011;4867;48.112;11.622;2023-07-16T00:14:25;8.20;;;4.97;;
9657;SDS011;4867;48.112;11.622;2023-07-16T00:16:52;7.67;;;5.30;;
9657;SDS011;4867;48.112;11.622;2023-07-16T00:19:20;7.07;;;5.70;;
9657;SDS011;4867;48.112;11.622;2023-07-16T00:21:47;7.70;;;5.50;;
9657;SDS011;4867;48.112;11.622;2023-07-16T00:24:14;7.53;;;5.33;;
9657;SDS011;4867;48.112;11.622;2023-07-16T00:26:41;6.40;;;5.63;;
9657;SDS011;4867;48.112;11.622;2023-07-16T00:29:10;6.10;;;5.50;;
9657;SDS011;4867;48.112;11.622;2023-07-16T00:31:37;7.03;;;5.67;;
9657;SDS011;4867;48.112;11.622;2023-07-16T00:34:04;6.20;;;5.60;;
9657;SDS011;4867;48.112;11.622;2023-07-16T00:36:32;6.00;;;5.40;;
9657;SDS011;4867;48.112;11.622;2023-07-16T00:38:59;6.50;;;5.67;;
9657;SDS011;4867;48.112;11.622;2023-07-16T00:41:26;6.57;;;5.77;;
9657;SDS011;4867;48.112;11.622;2023-07-16T00:43:54;6.20;;;5.60;;
9657;SDS011;4867;48.112;11.622;2023-07-16T00:46:21;7.67;;;5.67;;
9657;SDS011;4867;48.112;11.622;2023-07-16T00:48:49;8.67;;;5.93;;
9657;SDS011;4867;48.112;11.622;2023-07-16T00:51:17;8.50;;;6.00;;
9657;SDS011;4867;48.112;11.622;2023-07-16T00:53:45;6.60;;;5.70;;
9657;SDS011;4867;48.112;11.622;2023-07-16T00:56:13;6.37;;;5.70;;
9657;SDS011;4867;48.112;11.622;2023-07-16T00:58:44;6.10;;;5.50;;
9657;SDS011;4867;48.112;11.622;2023-07-16T01:01:12;7.03;;;5.73;;
9657;SDS011;4867;48.112;11.622;2023-07-16T01:03:39;7.33;;;6.07;;
9657;SDS011;4867;48.112;11.622;2023-07-16T01:08:52;6.83;;;6.23;;
9657;SDS011;4867;48.112;11.622;2023-07-16T01:11:22;7.67;;;6.43;;
9657;SDS011;4867;48.112;11.622;2023-07-16T01:13:50;9.17;;;6.60;;
9657;SDS011;4867;48.112;11.622;2023-07-16T01:16:19;7.70;;;6.23;;
9657;SDS011;4867;48.112;11.622;2023-07-16T01:18:48;7.80;;;6.53;;
9657;SDS011;4867;48.112;11.622;2023-07-16T01:21:18;7.00;;;6.40;;
9657;SDS011;4867;48.112;11.622;2023-07-16T01:26:51;7.50;;;6.67;;
9657;SDS011;4867;48.112;11.622;2023-07-16T01:31:56;9.53;;;6.63;;
9657;SDS011;4867;48.112;11.622;2023-07-16T01:34:28;7.27;;;6.40;;
9657;SDS011;4867;48.112;11.622;2023-07-16T01:36:57;8.93;;;7.07;;
9657;SDS011;4867;48.112;11.622;2023-07-16T01:39:24;8.17;;;6.97;;
9657;SDS011;4867;48.112;11.622;2023-07-16T01:41:52;7.47;;;6.53;;
9657;SDS011;4867;48.112;11.622;2023-07-16T01:44:20;7.87;;;7.03;;
9657;SDS011;4867;48.112;11.622;2023-07-16T01:46:49;7.33;;;6.63;;
9657;SDS011;4867;48.112;11.622;2023-07-16T01:49:37;7.63;;;6.93;;
9657;SDS011;4867;48.112;11.622;2023-07-16T01:52:06;9.23;;;7.33;;
9657;SDS011;4867;48.112;11.622;2023-07-16T01:54:33;8.00;;;7.13;;
9657;SDS011;4867;48.112;11.622;2023-07-16T01:57:01;9.37;;;6.90;;
9657;SDS011;4867;48.112;11.622;2023-07-16T01:59:29;8.27;;;6.93;;
9657;SDS011;4867;48.112;11.622;2023-07-16T02:01:56;7.87;;;6.93;;
9657;SDS011;4867;48.112;11.622;2023-07-16T02:04:23;7.50;;;6.80;;
9657;SDS011;4867;48.112;11.622;2023-07-16T02:06:51;7.50;;;6.70;;
9657;SDS011;4867;48.112;11.622;2023-07-16T02:09:21;11.03;;;7.60;;
9657;SDS011;4867;48.112;11.622;2023-07-16T02:11:49;10.17;;;7.33;;
9657;SDS011;4867;48.112;11.622;2023-07-16T02:14:17;7.97;;;7.17;;
9657;SDS011;4867;48.112;11.622;2023-07-16T02:16:44;8.30;;;7.50;;
9657;SDS011;4867;48.112;11.622;2023-07-16T02:19:11;8.60;;;7.27;;
9657;SDS011;4867;48.112;11.622;2023-07-16T02:21:39;10.90;;;7.40;;
9657;SDS011;4867;48.112;11.622;2023-07-16T02:24:06;9.97;;;7.37;;
9657;SDS011;4867;48.112;11.622;2023-07-16T02:26:33;8.20;;;7.30;;
9657;SDS011;4867;48.112;11.622;2023-07-16T02:29:01;8.70;;;7.27;;
9657;SDS011;4867;48.112;11.622;2023-07-16T02:31:28;10.03;;;7.30;;
9657;SDS011;4867;48.112;11.622;2023-07-16T02:33:56;8.10;;;7.30;;
9657;SDS011;4867;48.112;11.622;2023-07-16T02:36:23;7.57;;;6.77;;
9657;SDS011;4867;48.112;11.622;2023-07-16T02:38:50;7.80;;;7.00;;
9657;SDS011;4867;48.112;11.622;2023-07-16T02:41:17;10.43;;;7.57;;
9657;SDS011;4867;48.112;11.622;2023-07-16T02:43:45;7.57;;;6.87;;
9657;SDS011;4867;48.112;11.622;2023-07-16T02:46:13;11.57;;;7.07;;
9657;SDS011;4867;48.112;11.622;2023-07-16T02:48:41;7.63;;;6.83;;
9657;SDS011;4867;48.112;11.622;2023-07-16T02:51:08;9.00;;;7.17;;
9657;SDS011;4867;48.112;11.622;2023-07-16T02:53:35;8.40;;;6.97;;
9657;SDS011;4867;48.112;11.622;2023-07-16T02:56:03;7.73;;;6.63;;
9657;SDS011;4867;48.112;11.622;2023-07-16T02:58:30;10.17;;;6.40;;
9657;SDS011;4867;48.112;11.622;2023-07-16T03:00:59;7.57;;;6.07;;
9657;SDS011;4867;48.112;11.622;2023-07-16T03:03:27;7.07;;;6.43;;
9657;SDS011;4867;48.112;11.622;2023-07-16T03:06:01;6.70;;;6.10;;
9657;SDS011;4867;48.112;11.622;2023-07-16T03:08:29;7.73;;;6.30;;
9657;SDS011;4867;48.112;11.622;2023-07-16T03:10:58;9.30;;;6.23;;
9657;SDS011;4867;48.112;11.622;2023-07-16T03:13:26;8.23;;;6.00;;
9657;SDS011;4867;48.112;11.622;2023-07-16T03:15:53;6.70;;;5.70;;
9657;SDS011;4867;48.112;11.622;2023-07-16T03:18:20;6.57;;;5.60;;
9657;SDS011;4867;48.112;11.622;2023-07-16T03:20:48;6.87;;;5.70;;
9657;SDS011;4867;48.112;11.622;2023-07-16T03:23:15;5.77;;;5.20;;
9657;SDS011;4867;48.112;11.622;2023-07-16T03:25:42;7.43;;;4.83;;
9657;SDS011;4867;48.112;11.622;2023-07-16T03:28:12;4.30;;;4.00;;
9657;SDS011;4867;48.112;11.622;2023-07-16T03:30:44;5.13;;;4.63;;
9657;SDS011;4867;48.112;11.622;2023-07-16T03:33:15;4.53;;;4.13;;
9657;SDS011;4867;48.112;11.622;2023-07-16T03:35:44;5.13;;;4.00;;
9657;SDS011;4867;48.112;11.622;2023-07-16T03:38:12;5.20;;;4.57;;
9657;SDS011;4867;48.112;11.622;2023-07-16T03:40:46;5.93;;;3.60;;
9657;SDS011;4867;48.112;11.622;2023-07-16T03:43:17;5.23;;;4.10;;
9657;SDS011;4867;48.112;11.622;2023-07-16T03:45:45;5.30;;;4.23;;
9657;SDS011;4867;48.112;11.622;2023-07-16T03:48:13;5.37;;;4.17;;
9657;SDS011;4867;48.112;11.622;2023-07-16T03:50:40;4.87;;;4.00;;
9657;SDS011;4867;48.112;11.622;2023-07-16T03:53:08;4.60;;;4.00;;
9657;SDS011;4867;48.112;11.622;2023-07-16T03:55:35;4.63;;;3.90;;
9657;SDS011;4867;48.112;11.622;2023-07-16T03:58:03;5.10;;;3.90;;
9657;SDS011;4867;48.112;11.622;2023-07-16T04:00:30;4.73;;;3.80;;
9657;SDS011;4867;48.112;11.622;2023-07-16T04:02:58;4.37;;;4.07;;
9657;SDS011;4867;48.112;11.622;2023-07-16T04:05:26;6.33;;;4.43;;
9657;SDS011;4867;48.112;11.622;2023-07-16T04:07:53;5.83;;;5.03;;
9657;SDS011;4867;48.112;11.622;2023-07-16T04:10:20;4.77;;;4.23;;
9657;SDS011;4867;48.112;11.622;2023-07-16T04:12:48;5.03;;;4.50;;
9657;SDS011;4867;48.112;11.622;2023-07-16T04:15:15;6.53;;;4.50;;
9657;SDS011;4867;48.112;11.622;2023-07-16T04:17:42;6.23;;;4.70;;
9657;SDS011;4867;48.112;11.622;2023-07-16T04:20:10;5.70;;;4.50;;
9657;SDS011;4867;48.112;11.622;2023-07-16T04:22:37;4.87;;;4.47;;
9657;SDS011;4867;48.112;11.622;2023-07-16T04:25:04;6.40;;;5.37;;
9657;SDS011;4867;48.112;11.622;2023-07-16T04:27:32;12.07;;;5.40;;
9657;SDS011;4867;48.112;11.622;2023-07-16T04:29:59;8.80;;;4.90;;
9657;SDS011;4867;48.112;11.622;2023-07-16T04:32:26;6.53;;;4.73;;
9657;SDS011;4867;48.112;11.622;2023-07-16T04:34:54;5.50;;;4.73;;
9657;SDS011;4867;48.112;11.622;2023-07-16T04:37:21;5.43;;;4.47;;
9657;SDS011;4867;48.112;11.622;2023-07-16T04:39:48;7.40;;;5.03;;
9657;SDS011;4867;48.112;11.622;2023-07-16T04:42:15;5.47;;;4.67;;
9657;SDS011;4867;48.112;11.622;2023-07-16T04:44:43;6.43;;;4.60;;
9657;SDS011;4867;48.112;11.622;2023-07-16T04:47:10;6.63;;;5.13;;
9657;SDS011;4867;48.112;11.622;2023-07-16T04:49:38;6.37;;;4.80;;
9657;SDS011;4867;48.112;11.622;2023-07-16T04:52:05;4.97;;;4.40;;
9657;SDS011;4867;48.112;11.622;2023-07-16T04:54:36;4.30;;;3.90;;
9657;SDS011;4867;48.112;11.622;2023-07-16T04:57:05;4.30;;;3.90;;
9657;SDS011;4867;48.112;11.622;2023-07-16T04:59:33;4.23;;;3.80;;
9657;SDS011;4867;48.112;11.622;2023-07-16T05:02:05;5.27;;;4.17;;
9657;SDS011;4867;48.112;11.622;2023-07-16T05:04:33;5.77;;;4.60;;
9657;SDS011;4867;48.112;11.622;2023-07-16T05:07:02;5.37;;;4.77;;
9657;SDS011;4867;48.112;11.622;2023-07-16T05:09:29;4.03;;;3.73;;
9657;SDS011;4867;48.112;11.622;2023-07-16T05:11:57;4.13;;;3.70;;
9657;SDS011;4867;48.112;11.622;2023-07-16T05:14:25;4.53;;;3.93;;
9657;SDS011;4867;48.112;11.622;2023-07-16T05:16:54;4.23;;;3.70;;
9657;SDS011;4867;48.112;11.622;2023-07-16T05:19:22;4.27;;;3.57;;
9657;SDS011;4867;48.112;11.622;2023-07-16T05:21:49;4.20;;;3.80;;
9657;SDS011;4867;48.112;11.622;2023-07-16T05:24:17;4.33;;;3.73;;
9657;SDS011;4867;48.112;11.622;2023-07-16T05:26:44;4.30;;;3.20;;
9657;SDS011;4867;48.112;11.622;2023-07-16T05:29:11;4.07;;;3.20;;
9657;SDS011;4867;48.112;11.622;2023-07-16T05:31:38;3.50;;;3.20;;
9657;SDS011;4867;48.112;11.622;2023-07-16T05:34:06;3.70;;;3.20;;
9657;SDS011;4867;48.112;11.622;2023-07-16T05:36:34;3.80;;;3.00;;
9657;SDS011;4867;48.112;11.622;2023-07-16T05:39:01;2.80;;;2.60;;
9657;SDS011;4867;48.112;11.622;2023-07-16T05:41:28;3.03;;;2.83;;
9657;SDS011;4867;48.112;11.622;2023-07-16T05:43:55;3.60;;;3.30;;
9657;SDS011;4867;48.112;11.622;2023-07-16T05:46:23;3.73;;;2.83;;
9657;SDS011;4867;48.112;11.622;2023-07-16T05:48:51;3.60;;;3.30;;
9657;SDS011;4867;48.112;11.622;2023-07-16T05:51:18;5.17;;;3.27;;
9657;SDS011;4867;48.112;11.622;2023-07-16T05:53:45;3.47;;;3.00;;
9657;SDS011;4867;48.112;11.622;2023-07-16T05:56:13;5.53;;;3.20;;
9657;SDS011;4867;48.112;11.622;2023-07-16T05:58:41;2.97;;;2.63;;
9657;SDS011;4867;48.112;11.622;2023-07-16T06:01:08;3.57;;;3.10;;
9657;SDS011;4867;48.112;11.622;2023-07-16T06:03:38;4.10;;;3.00;;
9657;SDS011;4867;48.112;11.622;2023-07-16T06:06:05;3.23;;;2.70;;
9657;SDS011;4867;48.112;11.622;2023-07-16T06:08:34;2.90;;;2.50;;
9657;SDS011;4867;48.112;11.622;2023-07-16T06:11:02;2.73;;;2.50;;
9657;SDS011;4867;48.112;11.622;2023-07-16T06:13:30;2.60;;;2.40;;
9657;SDS011;4867;48.112;11.622;2023-07-16T06:15:58;4.10;;;2.50;;
9657;SDS011;4867;48.112;11.622;2023-07-16T06:18:25;2.93;;;2.50;;
9657;SDS011;4867;48.112;11.622;2023-07-16T06:20:52;2.40;;;2.20;;
9657;SDS011;4867;48.112;11.622;2023-07-16T06:23:21;3.00;;;2.47;;
9657;SDS011;4867;48.112;11.622;2023-07-16T06:25:53;4.67;;;2.70;;
9657;SDS011;4867;48.112;11.622;2023-07-16T06:28:21;3.67;;;2.60;;
9657;SDS011;4867;48.112;11.622;2023-07-16T06:30:49;3.03;;;2.73;;
9657;SDS011;4867;48.112;11.622;2023-07-16T06:33:18;3.47;;;3.17;;
9657;SDS011;4867;48.112;11.622;2023-07-16T06:35:46;3.83;;;3.43;;
9657;SDS011;4867;48.112;11.622;2023-07-16T06:38:14;3.83;;;3.53;;
9657;SDS011;4867;48.112;11.622;2023-07-16T06:40:48;4.13;;;3.80;;
9657;SDS011;4867;48.112;11.622;2023-07-16T06:43:16;4.30;;;3.90;;
9657;SDS011;4867;48.112;11.622;2023-07-16T06:45:44;4.90;;;3.90;;
9657;SDS011;4867;48.112;11.622;2023-07-16T06:48:11;4.23;;;3.90;;
9657;SDS011;4867;48.112;11.622;2023-07-16T06:50:38;3.80;;;3.50;;
9657;SDS011;4867;48.112;11.622;2023-07-16T06:53:06;4.13;;;3.80;;
9657;SDS011;4867;48.112;11.622;2023-07-16T06:55:33;4.47;;;3.80;;
9657;SDS011;4867;48.112;11.622;2023-07-16T06:58:00;3.97;;;3.57;;
9657;SDS011;4867;48.112;11.622;2023-07-16T07:00:28;4.23;;;3.83;;
9657;SDS011;4867;48.112;11.622;2023-07-16T07:02:55;4.47;;;4.07;;
9657;SDS011;4867;48.112;11.622;2023-07-16T07:05:23;4.23;;;3.83;;
9657;SDS011;4867;48.112;11.622;2023-07-16T07:07:50;4.30;;;3.90;;
9657;SDS011;4867;48.112;11.622;2023-07-16T07:10:17;4.00;;;3.70;;
9657;SDS011;4867;48.112;11.622;2023-07-16T07:12:45;4.07;;;3.57;;
9657;SDS011;4867;48.112;11.622;2023-07-16T07:15:12;3.90;;;3.60;;
9657;SDS011;4867;48.112;11.622;2023-07-16T07:17:39;4.63;;;3.53;;
9657;SDS011;4867;48.112;11.622;2023-07-16T07:20:09;3.80;;;3.40;;
9657;SDS011;4867;48.112;11.622;2023-07-16T07:22:37;3.47;;;2.90;;
9657;SDS011;4867;48.112;11.622;2023-07-16T07:25:04;4.70;;;3.20;;
9657;SDS011;4867;48.112;11.622;2023-07-16T07:27:32;5.67;;;2.93;;
9657;SDS011;4867;48.112;11.622;2023-07-16T07:29:59;3.40;;;3.10;;
9657;SDS011;4867;48.112;11.622;2023-07-16T07:32:28;3.03;;;2.30;;
9657;SDS011;4867;48.112;11.622;2023-07-16T07:34:56;3.10;;;2.80;;
9657;SDS011;4867;48.112;11.622;2023-07-16T07:37:23;3.70;;;2.40;;
9657;SDS011;4867;48.112;11.622;2023-07-16T07:39:53;2.43;;;2.23;;
9657;SDS011;4867;48.112;11.622;2023-07-16T07:42:20;3.10;;;2.40;;
9657;SDS011;4867;48.112;11.622;2023-07-16T07:44:51;2.93;;;2.30;;
9657;SDS011;4867;48.112;11.622;2023-07-16T07:47:18;2.70;;;2.30;;
9657;SDS011;4867;48.112;11.622;2023-07-16T07:49:45;2.50;;;2.30;;
9657;SDS011;4867;48.112;11.622;2023-07-16T07:52:13;3.00;;;2.70;;
9657;SDS011;4867;48.112;11.622;2023-07-16T07:54:40;2.37;;;2.17;;
9657;SDS011;4867;48.112;11.622;2023-07-16T07:57:08;2.47;;;2.27;;
9657;SDS011;4867;48.112;11.622;2023-07-16T07:59:35;2.80;;;2.50;;
9657;SDS011;4867;48.112;11.622;2023-07-16T08:02:03;3.40;;;2.40;;
9657;SDS011;4867;48.112;11.622;2023-07-16T08:04:30;2.60;;;2.40;;
9657;SDS011;4867;48.112;11.622;2023-07-16T08:06:59;2.80;;;2.50;;
9657;SDS011;4867;48.112;11.622;2023-07-16T08:09:26;3.17;;;2.43;;
9657;SDS011;4867;48.112;11.622;2023-07-16T08:11:54;2.73;;;2.40;;
9657;SDS011;4867;48.112;11.622;2023-07-16T08:14:21;2.80;;;2.60;;
9657;SDS011;4867;48.112;11.622;2023-07-16T08:16:48;3.57;;;2.27;;
9657;SDS011;4867;48.112;11.622;2023-07-16T08:19:15;2.67;;;2.40;;
9657;SDS011;4867;48.112;11.622;2023-07-16T08:21:43;2.70;;;2.50;;
9657;SDS011;4867;48.112;11.622;2023-07-16T08:24:11;3.40;;;2.50;;
9657;SDS011;4867;48.112;11.622;2023-07-16T08:26:38;2.70;;;2.50;;
9657;SDS011;4867;48.112;11.622;2023-07-16T08:29:05;3.03;;;2.50;;
9657;SDS011;4867;48.112;11.622;2023-07-16T08:31:32;2.70;;;2.50;;
9657;SDS011;4867;48.112;11.622;2023-07-16T08:34:00;2.90;;;2.40;;
9657;SDS011;4867;48.112;11.622;2023-07-16T08:36:30;2.63;;;2.43;;
9657;SDS011;4867;48.112;11.622;2023-07-16T08:38:59;2.73;;;2.47;;
9657;SDS011;4867;48.112;11.622;2023-07-16T08:41:26;2.67;;;2.40;;
9657;SDS011;4867;48.112;11.622;2023-07-16T08:43:54;3.58;;;2.10;;
9657;SDS011;4867;48.112;11.622;2023-07-16T08:46:21;2.00;;;1.90;;
9657;SDS011;4867;48.112;11.622;2023-07-16T08:48:49;2.40;;;2.20;;
9657;SDS011;4867;48.112;11.622;2023-07-16T08:51:18;2.97;;;2.35;;
9657;SDS011;4867;48.112;11.622;2023-07-16T08:53:48;1.92;;;1.83;;
9657;SDS011;4867;48.112;11.622;2023-07-16T08:56:15;2.33;;;2.15;;
9657;SDS011;4867;48.112;11.622;2023-07-16T08:58:43;2.80;;;2.15;;
9657;SDS011;4867;48.112;11.622;2023-07-16T09:01:11;2.22;;;1.98;;
9657;SDS011;4867;48.112;11.622;2023-07-16T09:03:41;2.03;;;1.88;;
9657;SDS011;4867;48.112;11.622;2023-07-16T09:06:09;2.15;;;2.00;;
9657;SDS011;4867;48.112;11.622;2023-07-16T09:08:36;2.40;;;2.20;;
9657;SDS011;4867;48.112;11.622;2023-07-16T09:11:04;3.65;;;2.10;;
9657;SDS011;4867;48.112;11.622;2023-07-16T09:13:31;2.28;;;2.13;;
9657;SDS011;4867;48.112;11.622;2023-07-16T09:15:58;2.40;;;2.20;;
9657;SDS011;4867;48.112;11.622;2023-07-16T09:18:27;2.28;;;1.90;;
9657;SDS011;4867;48.112;11.622;2023-07-16T09:20:55;2.22;;;1.95;;
9657;SDS011;4867;48.112;11.622;2023-07-16T09:23:30;2.20;;;2.00;;
9657;SDS011;4867;48.112;11.622;2023-07-16T09:25:58;2.28;;;2.08;;
9657;SDS011;4867;48.112;11.622;2023-07-16T09:28:25;2.28;;;2.08;;
9657;SDS011;4867;48.112;11.622;2023-07-16T09:30:53;2.50;;;2.30;;
9657;SDS011;4867;48.112;11.622;2023-07-16T09:33:21;2.40;;;2.10;;
9657;SDS011;4867;48.112;11.622;2023-07-16T09:35:53;2.78;;;2.42;;
9657;SDS011;4867;48.112;11.622;2023-07-16T09:38:20;3.15;;;2.20;;
9657;SDS011;4867;48.112;11.622;2023-07-16T09:40:48;2.60;;;2.40;;
9657;SDS011;4867;48.112;11.622;2023-07-16T09:43:15;2.70;;;2.30;;
9657;SDS011;4867;48.112;11.622;2023-07-16T09:45:42;2.30;;;2.20;;
9657;SDS011;4867;48.112;11.622;2023-07-16T09:48:10;2.50;;;2.25;;
9657;SDS011;4867;48.112;11.622;2023-07-16T09:50:37;2.92;;;2.10;;
9657;SDS011;4867;48.112;11.622;2023-07-16T09:53:08;2.35;;;2.15;;
9657;SDS011;4867;48.112;11.622;2023-07-16T09:55:36;2.42;;;2.22;;
9657;SDS011;4867;48.112;11.622;2023-07-16T09:58:06;2.15;;;2.05;;
9657;SDS011;4867;48.112;11.622;2023-07-16T10:00:36;2.17;;;2.03;;
9657;SDS011;4867;48.112;11.622;2023-07-16T10:03:07;2.40;;;2.20;;
9657;SDS011;4867;48.112;11.622;2023-07-16T10:05:36;2.83;;;2.28;;
9657;SDS011;4867;48.112;11.622;2023-07-16T10:08:04;2.17;;;2.08;;
9657;SDS011;4867;48.112;11.622;2023-07-16T10:10:42;3.13;;;2.08;;
9657;SDS011;4867;48.112;11.622;2023-07-16T10:13:11;1.98;;;1.88;;
9657;SDS011;4867;48.112;11.622;2023-07-16T10:15:49;2.28;;;2.08;;
9657;SDS011;4867;48.112;11.622;2023-07-16T10:21:05;2.47;;;2.28;;
9657;SDS011;4867;48.112;11.622;2023-07-16T10:23:38;3.42;;;2.45;;
9657;SDS011;4867;48.112;11.622;2023-07-16T10:26:08;3.05;;;2.60;;
9657;SDS011;4867;48.112;11.622;2023-07-16T10:28:45;3.38;;;2.20;;
9657;SDS011;4867;48.112;11.622;2023-07-16T10:31:17;2.40;;;2.20;;
9657;SDS011;4867;48.112;11.622;2023-07-16T10:34:02;2.03;;;1.92;;
9657;SDS011;4867;48.112;11.622;2023-07-16T10:36:38;2.30;;;2.10;;
9657;SDS011;4867;48.112;11.622;2023-07-16T10:39:05;2.38;;;2.17;;
9657;SDS011;4867;48.112;11.622;2023-07-16T10:41:33;2.40;;;2.10;;
9657;SDS011;4867;48.112;11.622;2023-07-16T10:44:01;2.10;;;2.00;;
9657;SDS011;4867;48.112;11.622;2023-07-16T10:46:30;2.30;;;2.10;;
9657;SDS011;4867;48.112;11.622;2023-07-16T10:48:58;2.60;;;2.40;;
9657;SDS011;4867;48.112;11.622;2023-07-16T10:51:26;2.40;;;2.20;;
9657;SDS011;4867;48.112;11.622;2023-07-16T10:53:57;2.60;;;2.40;;
9657;SDS011;4867;48.112;11.622;2023-07-16T10:56:25;2.50;;;2.30;;
9657;SDS011;4867;48.112;11.622;2023-07-16T10:58:52;2.55;;;2.35;;
9657;SDS011;4867;48.112;11.622;2023-07-16T11:01:20;2.30;;;2.10;;
9657;SDS011;4867;48.112;11.622;2023-07-16T11:03:47;2.22;;;2.13;;
9657;SDS011;4867;48.112;11.622;2023-07-16T11:06:15;2.67;;;2.47;;
9657;SDS011;4867;48.112;11.622;2023-07-16T11:08:46;2.40;;;2.20;;
9657;SDS011;4867;48.112;11.622;2023-07-16T11:11:13;2.42;;;2.22;;
9657;SDS011;4867;48.112;11.622;2023-07-16T11:13:40;2.70;;;2.17;;
9657;SDS011;4867;48.112;11.622;2023-07-16T11:16:08;2.60;;;2.35;;
9657;SDS011;4867;48.112;11.622;2023-07-16T11:18:36;2.72;;;2.53;;
9657;SDS011;4867;48.112;11.622;2023-07-16T11:21:04;2.60;;;2.40;;
9657;SDS011;4867;48.112;11.622;2023-07-16T11:23:35;2.50;;;2.30;;
9657;SDS011;4867;48.112;11.622;2023-07-16T11:26:02;3.20;;;2.90;;
9657;SDS011;4867;48.112;11.622;2023-07-16T11:29:07;2.95;;;2.75;;
9657;SDS011;4867;48.112;11.622;2023-07-16T11:31:23;3.10;;;2.80;;
9657;SDS011;4867;48.112;11.622;2023-07-16T11:33:51;3.22;;;2.45;;
9657;SDS011;4867;48.112;11.622;2023-07-16T11:36:18;2.70;;;2.50;;
9657;SDS011;4867;48.112;11.622;2023-07-16T11:38:47;2.70;;;2.50;;
9657;SDS011;4867;48.112;11.622;2023-07-16T11:41:17;3.25;;;2.83;;
9657;SDS011;4867;48.112;11.622;2023-07-16T11:43:47;3.13;;;2.60;;
9657;SDS011;4867;48.112;11.622;2023-07-16T11:46:15;2.65;;;2.45;;
9657;SDS011;4867;48.112;11.622;2023-07-16T11:48:44;3.10;;;2.90;;
9657;SDS011;4867;48.112;11.622;2023-07-16T11:51:11;2.75;;;2.55;;
9657;SDS011;4867;48.112;11.622;2023-07-16T11:53:38;2.60;;;2.40;;
9657;SDS011;4867;48.112;11.622;2023-07-16T11:56:06;3.00;;;2.80;;
9657;SDS011;4867;48.112;11.622;2023-07-16T11:58:33;3.00;;;2.78;;
9657;SDS011;4867;48.112;11.622;2023-07-16T12:01:00;3.03;;;2.80;;
9657;SDS011;4867;48.112;11.622;2023-07-16T12:03:31;2.80;;;2.60;;
9657;SDS011;4867;48.112;11.622;2023-07-16T12:05:58;3.00;;;2.70;;
9657;SDS011;4867;48.112;11.622;2023-07-16T12:08:25;2.80;;;2.60;;
9657;SDS011;4867;48.112;11.622;2023-07-16T12:10:53;2.78;;;2.58;;
9657;SDS011;4867;48.112;11.622;2023-07-16T12:13:20;2.90;;;2.70;;
9657;SDS011;4867;48.112;11.622;2023-07-16T12:15:47;2.60;;;2.40;;
9657;SDS011;4867;48.112;11.622;2023-07-16T12:18:15;2.80;;;2.60;;
9657;SDS011;4867;48.112;11.622;2023-07-16T12:20:43;3.13;;;2.70;;
9657;SDS011;4867;48.112;11.622;2023-07-16T12:23:10;4.53;;;3.00;;
9657;SDS011;4867;48.112;11.622;2023-07-16T12:25:37;4.30;;;2.72;;
9657;SDS011;4867;48.112;11.622;2023-07-16T12:28:05;2.83;;;2.63;;
9657;SDS011;4867;48.112;11.622;2023-07-16T12:30:32;2.97;;;2.70;;
9657;SDS011;4867;48.112;11.622;2023-07-16T12:32:59;3.08;;;2.78;;
9657;SDS011;4867;48.112;11.622;2023-07-16T12:35:27;3.05;;;2.83;;
9657;SDS011;4867;48.112;11.622;2023-07-16T12:37:54;3.05;;;2.83;;
9657;SDS011;4867;48.112;11.622;2023-07-16T12:40:25;2.85;;;2.63;;
9657;SDS011;4867;48.112;11.622;2023-07-16T12:42:52;3.13;;;2.83;;
9657;SDS011;4867;48.112;11.622;2023-07-16T12:45:20;3.05;;;2.85;;
9657;SDS011;4867;48.112;11.622;2023-07-16T12:47:47;4.40;;;4.00;;
9657;SDS011;4867;48.112;11.622;2023-07-16T12:50:15;2.90;;;2.70;;
9657;SDS011;4867;48.112;11.622;2023-07-16T12:52:42;2.95;;;2.75;;
9657;SDS011;4867;48.112;11.622;2023-07-16T12:55:10;3.17;;;2.97;;
9657;SDS011;4867;48.112;11.622;2023-07-16T12:57:37;2.95;;;2.75;;
9657;SDS011;4867;48.112;11.622;2023-07-16T13:00:05;4.00;;;3.70;;
9657;SDS011;4867;48.112;11.622;2023-07-16T13:02:33;3.08;;;2.83;;
9657;SDS011;4867;48.112;11.622;2023-07-16T13:05:01;6.85;;;5.32;;
9657;SDS011;4867;48.112;11.622;2023-07-16T13:07:29;3.28;;;2.97;;
9657;SDS011;4867;48.112;11.622;2023-07-16T13:09:58;3.78;;;3.40;;
9657;SDS011;4867;48.112;11.622;2023-07-16T13:12:43;3.30;;;3.00;;
9657;SDS011;4867;48.112;11.622;2023-07-16T13:15:10;3.20;;;2.90;;
9657;SDS011;4867;48.112;11.622;2023-07-16T13:17:38;5.75;;;3.90;;
9657;SDS011;4867;48.112;11.622;2023-07-16T13:20:05;2.90;;;2.70;;
9657;SDS011;4867;48.112;11.622;2023-07-16T13:22:33;3.05;;;2.70;;
9657;SDS011;4867;48.112;11.622;2023-07-16T13:25:01;3.03;;;2.83;;
9657;SDS011;4867;48.112;11.622;2023-07-16T13:27:28;3.00;;;2.80;;
9657;SDS011;4867;48.112;11.622;2023-07-16T13:29:56;4.05;;;2.90;;
9657;SDS011;4867;48.112;11.622;2023-07-16T13:32:23;3.35;;;3.05;;
9657;SDS011;4867;48.112;11.622;2023-07-16T13:34:50;3.70;;;3.40;;
9657;SDS011;4867;48.112;11.622;2023-07-16T13:37:17;5.60;;;5.10;;
9657;SDS011;4867;48.112;11.622;2023-07-16T13:39:45;6.60;;;6.03;;
9657;SDS011;4867;48.112;11.622;2023-07-16T13:42:12;3.30;;;3.10;;
9657;SDS011;4867;48.112;11.622;2023-07-16T13:44:49;3.30;;;3.00;;
9657;SDS011;4867;48.112;11.622;2023-07-16T13:47:17;3.20;;;2.90;;
9657;SDS011;4867;48.112;11.622;2023-07-16T13:49:44;4.50;;;3.13;;
9657;SDS011;4867;48.112;11.622;2023-07-16T13:52:11;3.63;;;3.33;;
9657;SDS011;4867;48.112;11.622;2023-07-16T13:54:38;2.90;;;2.70;;
9657;SDS011;4867;48.112;11.622;2023-07-16T13:57:08;3.40;;;3.10;;
9657;SDS011;4867;48.112;11.622;2023-07-16T13:59:35;3.90;;;3.10;;
9657;SDS011;4867;48.112;11.622;2023-07-16T14:02:03;4.63;;;3.33;;
9657;SDS011;4867;48.112;11.622;2023-07-16T14:04:31;3.53;;;3.10;;
9657;SDS011;4867;48.112;11.622;2023-07-16T14:06:59;4.25;;;3.25;;
9657;SDS011;4867;48.112;11.622;2023-07-16T14:09:27;3.67;;;3.25;;
9657;SDS011;4867;48.112;11.622;2023-07-16T14:11:54;3.40;;;3.20;;
9657;SDS011;4867;48.112;11.622;2023-07-16T14:14:21;3.40;;;3.10;;
9657;SDS011;4867;48.112;11.622;2023-07-16T14:16:49;3.35;;;3.08;;
9657;SDS011;4867;48.112;11.622;2023-07-16T14:19:16;3.30;;;3.00;;
9657;SDS011;4867;48.112;11.622;2023-07-16T14:21:44;3.80;;;3.50;;
9657;SDS011;4867;48.112;11.622;2023-07-16T14:24:11;3.38;;;3.08;;
9657;SDS011;4867;48.112;11.622;2023-07-16T14:26:38;3.15;;;2.95;;
9657;SDS011;4867;48.112;11.622;2023-07-16T14:29:05;3.60;;;3.30;;
9657;SDS011;4867;48.112;11.622;2023-07-16T14:31:33;3.78;;;3.28;;
9657;SDS011;4867;48.112;11.622;2023-07-16T14:34:00;3.50;;;3.20;;
9657;SDS011;4867;48.112;11.622;2023-07-16T14:36:27;4.65;;;3.35;;
9657;SDS011;4867;48.112;11.622;2023-07-16T14:38:55;3.75;;;3.28;;
9657;SDS011;4867;48.112;11.622;2023-07-16T14:41:22;3.92;;;2.95;;
9657;SDS011;4867;48.112;11.622;2023-07-16T14:43:49;3.28;;;2.97;;
9657;SDS011;4867;48.112;11.622;2023-07-16T14:46:17;3.30;;;3.00;;
9657;SDS011;4867;48.112;11.622;2023-07-16T14:48:45;3.47;;;3.17;;
9657;SDS011;4867;48.112;11.622;2023-07-16T14:51:12;3.47;;;3.17;;
9657;SDS011;4867;48.112;11.622;2023-07-16T14:53:40;3.35;;;3.13;;
9657;SDS011;4867;48.112;11.622;2023-07-16T14:56:07;3.45;;;3.17;;
9657;SDS011;4867;48.112;11.622;2023-07-16T14:58:34;4.10;;;3.20;;
9657;SDS011;4867;48.112;11.622;2023-07-16T15:01:03;4.10;;;3.40;;
9657;SDS011;4867;48.112;11.622;2023-07-16T15:03:37;5.22;;;3.28;;
9657;SDS011;4867;48.112;11.622;2023-07-16T15:06:07;3.60;;;3.30;;
9657;SDS011;4867;48.112;11.622;2023-07-16T15:08:34;3.15;;;2.95;;
9657;SDS011;4867;48.112;11.622;2023-07-16T15:11:02;3.70;;;3.40;;
9657;SDS011;4867;48.112;11.622;2023-07-16T15:13:29;3.70;;;3.40;;
9657;SDS011;4867;48.112;11.622;2023-07-16T15:15:57;3.30;;;3.10;;
9657;SDS011;4867;48.112;11.622;2023-07-16T15:18:25;4.15;;;3.47;;